Time,TemperatureF,DewpointF,PressureIn,WindDirection,WindDirectionDegrees,WindSpeedMPH,WindSpeedGustMPH,Humidity,HourlyPrecipIn,Conditions,Clouds,dailyrainin,SoftwareType,DateUTC
2013-10-28 00:09:00,41.7,33.0,30.07,SSW,197,0.0,-999.0,71,-99.99,,,0.00,weatherlink.com 1.10,2013-10-28 04:09:00,
2013-10-28 00:24:00,41.5,33.0,30.07,SSW,210,0.0,-999.0,71,-99.99,,,0.00,weatherlink.com 1.10,2013-10-28 04:24:00,
2013-10-28 00:39:00,41.3,33.0,30.08,SSW,198,0.0,-999.0,72,-99.99,,,0.00,weatherlink.com 1.10,2013-10-28 04:39:00,
2013-10-28 00:54:00,41.3,33.0,30.08,SSW,207,0.0,-999.0,71,-99.99,,,0.00,weatherlink.com 1.10,2013-10-28 04:54:00,
2013-10-28 01:09:00,41.4,33.0,30.09,West,271,0.0,-999.0,71,-99.99,,,0.00,weatherlink.com 1.10,2013-10-28 05:09:00,
2013-10-28 01:24:00,40.2,32.0,30.10,West,277,0.0,-999.0,73,-99.99,,,0.00,weatherlink.com 1.10,2013-10-28 05:24:00,
2013-10-28 01:39:00,39.7,32.0,30.11,West,277,0.0,-999.0,74,-99.99,,,0.00,weatherlink.com 1.10,2013-10-28 05:39:00,
2013-10-28 01:54:00,38.7,32.0,30.11,West,277,0.0,-999.0,76,-99.99,,,0.00,weatherlink.com 1.10,2013-10-28 05:54:00,
2013-10-28 02:09:00,37.8,32.0,30.11,West,277,0.0,-999.0,78,-99.99,,,0.00,weatherlink.com 1.10,2013-10-28 06:09:00,
2013-10-28 02:24:00,37.7,32.0,30.12,West,277,0.0,-999.0,79,-99.99,,,0.00,weatherlink.com 1.10,2013-10-28 06:24:00,
2013-10-28 02:39:00,38.4,32.0,30.12,West,277,0.0,-999.0,78,-99.99,,,0.00,weatherlink.com 1.10,2013-10-28 06:39:00,
2013-10-28 02:54:00,37.5,32.0,30.12,West,277,0.0,-999.0,79,-99.99,,,0.00,weatherlink.com 1.10,2013-10-28 06:54:00,
2013-10-28 03:09:00,36.7,31.0,30.12,West,277,0.0,-999.0,80,-99.99,,,0.00,weatherlink.com 1.10,2013-10-28 07:09:00,
2013-10-28 03:24:00,36.8,32.0,30.13,SW,218,0.0,-999.0,81,-99.99,,,0.00,weatherlink.com 1.10,2013-10-28 07:24:00,
2013-10-28 03:39:00,37.4,32.0,30.13,WNW,287,0.0,-999.0,80,-99.99,,,0.00,weatherlink.com 1.10,2013-10-28 07:39:00,
2013-10-28 03:54:00,37.4,32.0,30.13,WSW,237,0.0,-999.0,80,-99.99,,,0.00,weatherlink.com 1.10,2013-10-28 07:54:00,
2013-10-28 04:09:00,37.3,32.0,30.13,WSW,238,0.0,-999.0,80,-99.99,,,0.00,weatherlink.com 1.10,2013-10-28 08:09:00,
2013-10-28 04:24:00,37.1,32.0,30.13,SSW,210,0.0,-999.0,81,-99.99,,,0.00,weatherlink.com 1.10,2013-10-28 08:24:00,
2013-10-28 04:39:00,37.2,32.0,30.14,SSW,200,0.0,-999.0,81,-99.99,,,0.00,weatherlink.com 1.10,2013-10-28 08:39:00,
2013-10-28 04:54:00,37.2,32.0,30.14,SW,229,0.0,-999.0,80,-99.99,,,0.00,weatherlink.com 1.10,2013-10-28 08:54:00,
2013-10-28 05:09:00,36.3,31.0,30.15,SW,229,0.0,-999.0,82,-99.99,,,0.00,weatherlink.com 1.10,2013-10-28 09:09:00,
2013-10-28 05:24:00,-999.0,-99.9,30.15,North,-999,-999.0,-999.0,-999,-99.99,,,0.00,weatherlink.com 1.10,2013-10-28 09:24:00,
2013-10-28 05:39:00,-999.0,-99.9,30.16,North,-999,-999.0,-999.0,-999,-99.99,,,0.00,weatherlink.com 1.10,2013-10-28 09:39:00,
2013-10-28 05:54:00,-999.0,-99.9,30.16,North,-999,-999.0,-999.0,-999,-99.99,,,0.00,weatherlink.com 1.10,2013-10-28 09:54:00,
2013-10-28 06:09:00,-999.0,-99.9,30.16,North,-999,-999.0,-999.0,-999,-99.99,,,0.00,weatherlink.com 1.10,2013-10-28 10:09:00,
2013-10-28 06:24:00,-999.0,-99.9,30.17,North,-999,-999.0,-999.0,-999,-99.99,,,0.00,weatherlink.com 1.10,2013-10-28 10:24:00,
2013-10-28 06:39:00,-999.0,-99.9,30.17,North,-999,-999.0,-999.0,-999,-99.99,,,0.00,weatherlink.com 1.10,2013-10-28 10:39:00,
2013-10-28 06:54:00,-999.0,-99.9,30.18,North,-999,-999.0,-999.0,-999,-99.99,,,0.00,weatherlink.com 1.10,2013-10-28 10:54:00,
2013-10-28 07:09:00,-999.0,-99.9,30.18,North,-999,-999.0,-999.0,-999,-99.99,,,0.00,weatherlink.com 1.10,2013-10-28 11:09:00,
2013-10-28 07:24:00,-999.0,-99.9,30.18,North,-999,-999.0,-999.0,-999,-99.99,,,0.00,weatherlink.com 1.10,2013-10-28 11:24:00,
2013-10-28 07:39:00,-999.0,-99.9,30.19,North,-999,-999.0,-999.0,-999,-99.99,,,0.00,weatherlink.com 1.10,2013-10-28 11:39:00,
2013-10-28 07:54:00,-999.0,-99.9,30.20,North,-999,-999.0,-999.0,-999,-99.99,,,0.00,weatherlink.com 1.10,2013-10-28 11:54:00,
2013-10-28 08:09:00,-999.0,-99.9,30.21,North,-999,-999.0,-999.0,-999,-99.99,,,0.00,weatherlink.com 1.10,2013-10-28 12:09:00,
2013-10-28 08:24:00,-999.0,-99.9,30.22,North,-999,-999.0,-999.0,-999,-99.99,,,0.00,weatherlink.com 1.10,2013-10-28 12:24:00,
2013-10-28 08:39:00,34.9,32.0,30.23,NNW,330,0.0,-999.0,89,-99.99,,,0.00,weatherlink.com 1.10,2013-10-28 12:39:00,
2013-10-28 08:54:00,36.1,33.0,30.24,WNW,285,0.0,-999.0,87,-99.99,,,0.00,weatherlink.com 1.10,2013-10-28 12:54:00,
2013-10-28 09:09:00,37.6,34.0,30.25,WNW,290,0.0,-999.0,86,-99.99,,,0.00,weatherlink.com 1.10,2013-10-28 13:09:00,
2013-10-28 09:24:00,38.9,35.0,30.25,WNW,290,0.0,-999.0,84,-99.99,,,0.00,weatherlink.com 1.10,2013-10-28 13:24:00,
2013-10-28 09:39:00,39.2,35.0,30.26,WNW,293,0.0,-999.0,84,-99.99,,,0.00,weatherlink.com 1.10,2013-10-28 13:39:00,
2013-10-28 09:54:00,40.0,35.0,30.26,WNW,292,0.0,-999.0,81,-99.99,,,0.00,weatherlink.com 1.10,2013-10-28 13:54:00,
2013-10-28 10:09:00,41.8,36.0,30.27,NW,323,0.0,-999.0,81,-99.99,,,0.00,weatherlink.com 1.10,2013-10-28 14:09:00,
2013-10-28 10:23:00,43.9,37.0,30.27,NNW,328,0.0,-999.0,77,-99.99,,,0.00,weatherlink.com 1.10,2013-10-28 14:23:00,
2013-10-28 10:39:00,45.5,38.0,30.28,NNW,332,0.0,-999.0,76,-99.99,,,0.00,weatherlink.com 1.10,2013-10-28 14:39:00,
2013-10-28 10:54:00,47.6,40.0,30.28,NNW,332,0.0,-999.0,74,-99.99,,,0.00,weatherlink.com 1.10,2013-10-28 14:54:00,
2013-10-28 11:09:00,49.0,40.0,30.29,ENE,66,0.0,-999.0,72,-99.99,,,0.00,weatherlink.com 1.10,2013-10-28 15:09:00,
2013-10-28 11:24:00,49.5,41.0,30.29,ENE,67,0.0,-999.0,72,-99.99,,,0.00,weatherlink.com 1.10,2013-10-28 15:24:00,
2013-10-28 11:39:00,51.0,42.0,30.29,WNW,290,0.0,-999.0,71,-99.99,,,0.00,weatherlink.com 1.10,2013-10-28 15:39:00,
2013-10-28 11:54:00,52.0,42.0,30.30,NE,37,0.0,-999.0,68,-99.99,,,0.00,weatherlink.com 1.10,2013-10-28 15:54:00,
2013-10-28 12:09:00,52.8,42.0,30.30,ENE,75,3.0,-999.0,68,-99.99,,,0.00,weatherlink.com 1.10,2013-10-28 16:09:00,
2013-10-28 12:24:00,53.2,44.0,30.30,NE,40,0.0,-999.0,70,-99.99,,,0.00,weatherlink.com 1.10,2013-10-28 16:24:00,
2013-10-28 12:39:00,53.4,44.0,30.30,ENE,68,2.0,-999.0,71,-99.99,,,0.00,weatherlink.com 1.10,2013-10-28 16:39:00,
2013-10-28 12:54:00,53.1,43.0,30.30,East,86,3.0,-999.0,69,-99.99,,,0.00,weatherlink.com 1.10,2013-10-28 16:54:00,
2013-10-28 13:09:00,54.7,44.0,30.30,ENE,77,0.0,-999.0,67,-99.99,,,0.00,weatherlink.com 1.10,2013-10-28 17:09:00,
2013-10-28 13:24:00,54.2,43.0,30.30,ENE,70,0.0,-999.0,67,-99.99,,,0.00,weatherlink.com 1.10,2013-10-28 17:24:00,
2013-10-28 13:39:00,54.4,44.0,30.30,SSE,167,0.0,-999.0,67,-99.99,,,0.00,weatherlink.com 1.10,2013-10-28 17:39:00,
2013-10-28 13:54:00,56.3,45.0,30.29,East,96,0.0,-999.0,65,-99.99,,,0.00,weatherlink.com 1.10,2013-10-28 17:54:00,
2013-10-28 14:09:00,55.4,44.0,30.29,NNW,338,0.0,-999.0,65,-99.99,,,0.00,weatherlink.com 1.10,2013-10-28 18:09:00,
2013-10-28 14:24:00,53.9,43.0,30.29,ENE,75,2.0,-999.0,68,-99.99,,,0.00,weatherlink.com 1.10,2013-10-28 18:24:00,
2013-10-28 14:39:00,54.4,43.0,30.29,ENE,77,5.0,-999.0,65,-99.99,,,0.00,weatherlink.com 1.10,2013-10-28 18:39:00,
2013-10-28 14:54:00,54.1,42.0,30.29,ENE,70,0.0,-999.0,65,-99.99,,,0.00,weatherlink.com 1.10,2013-10-28 18:54:00,
2013-10-28 15:09:00,54.2,43.0,30.29,ENE,65,0.0,-999.0,66,-99.99,,,0.00,weatherlink.com 1.10,2013-10-28 19:09:00,
2013-10-28 15:24:00,53.4,43.0,30.29,NNE,29,0.0,-999.0,68,-99.99,,,0.00,weatherlink.com 1.10,2013-10-28 19:24:00,
2013-10-28 15:39:00,53.0,43.0,30.30,ESE,115,0.0,-999.0,68,-99.99,,,0.00,weatherlink.com 1.10,2013-10-28 19:39:00,
2013-10-28 15:54:00,52.9,43.0,30.30,ENE,74,7.0,-999.0,69,-99.99,,,0.00,weatherlink.com 1.10,2013-10-28 19:54:00,
2013-10-28 16:09:00,52.3,43.0,30.30,NE,44,0.0,-999.0,70,-99.99,,,0.00,weatherlink.com 1.10,2013-10-28 20:09:00,
2013-10-28 16:24:00,52.5,43.0,30.31,East,96,1.0,-999.0,70,-99.99,,,0.00,weatherlink.com 1.10,2013-10-28 20:24:00,
2013-10-28 16:39:00,52.3,43.0,30.31,ENE,72,0.0,-999.0,70,-99.99,,,0.00,weatherlink.com 1.10,2013-10-28 20:39:00,
2013-10-28 16:54:00,52.2,43.0,30.31,NNE,22,0.0,-999.0,71,-99.99,,,0.00,weatherlink.com 1.10,2013-10-28 20:54:00,
2013-10-28 17:09:00,52.0,43.0,30.31,East,100,0.0,-999.0,71,-99.99,,,0.00,weatherlink.com 1.10,2013-10-28 21:09:00,
2013-10-28 17:24:00,51.6,42.0,30.31,East,101,0.0,-999.0,71,-99.99,,,0.00,weatherlink.com 1.10,2013-10-28 21:24:00,
2013-10-28 17:39:00,51.7,43.0,30.31,NE,34,0.0,-999.0,72,-99.99,,,0.00,weatherlink.com 1.10,2013-10-28 21:39:00,
2013-10-28 17:54:00,50.9,42.0,30.31,ENE,77,4.0,-999.0,72,-99.99,,,0.00,weatherlink.com 1.10,2013-10-28 21:54:00,
2013-10-28 18:09:00,50.3,42.0,30.31,ENE,77,0.0,-999.0,73,-99.99,,,0.00,weatherlink.com 1.10,2013-10-28 22:09:00,
2013-10-28 18:24:00,49.5,42.0,30.32,East,80,0.0,-999.0,74,-99.99,,,0.00,weatherlink.com 1.10,2013-10-28 22:24:00,
2013-10-28 18:39:00,48.6,40.0,30.32,ENE,59,0.0,-999.0,73,-99.99,,,0.00,weatherlink.com 1.10,2013-10-28 22:39:00,
2013-10-28 18:54:00,48.1,40.0,30.33,East,79,0.0,-999.0,74,-99.99,,,0.00,weatherlink.com 1.10,2013-10-28 22:54:00,
2013-10-28 19:09:00,47.4,40.0,30.34,ENE,77,3.0,-999.0,75,-99.99,,,0.00,weatherlink.com 1.10,2013-10-28 23:09:00,
2013-10-28 19:24:00,46.9,39.0,30.33,East,86,0.0,-999.0,75,-99.99,,,0.00,weatherlink.com 1.10,2013-10-28 23:24:00,
2013-10-28 19:39:00,46.7,39.0,30.34,North,5,0.0,-999.0,75,-99.99,,,0.00,weatherlink.com 1.10,2013-10-28 23:39:00,
2013-10-28 19:54:00,46.0,39.0,30.35,ENE,63,0.0,-999.0,77,-99.99,,,0.00,weatherlink.com 1.10,2013-10-28 23:54:00,
2013-10-28 20:09:00,45.4,39.0,30.35,NE,56,0.0,-999.0,78,-99.99,,,0.00,weatherlink.com 1.10,2013-10-29 00:09:00,
2013-10-28 20:24:00,45.1,38.0,30.35,ENE,67,0.0,-999.0,77,-99.99,,,0.00,weatherlink.com 1.10,2013-10-29 00:24:00,
2013-10-28 20:39:00,44.8,38.0,30.36,NNE,25,0.0,-999.0,77,-99.99,,,0.00,weatherlink.com 1.10,2013-10-29 00:39:00,
2013-10-28 20:54:00,44.4,38.0,30.36,NE,56,0.0,-999.0,77,-99.99,,,0.00,weatherlink.com 1.10,2013-10-29 00:54:00,
2013-10-28 21:09:00,44.5,37.0,30.36,NNE,13,0.0,-999.0,76,-99.99,,,0.00,weatherlink.com 1.10,2013-10-29 01:09:00,
2013-10-28 21:24:00,44.6,37.0,30.36,NNE,27,0.0,-999.0,75,-99.99,,,0.00,weatherlink.com 1.10,2013-10-29 01:24:00,
2013-10-28 21:39:00,44.7,37.0,30.37,NE,56,0.0,-999.0,74,-99.99,,,0.00,weatherlink.com 1.10,2013-10-29 01:39:00,
2013-10-28 21:54:00,44.6,37.0,30.37,NNE,20,0.0,-999.0,74,-99.99,,,0.00,weatherlink.com 1.10,2013-10-29 01:54:00,
2013-10-28 22:10:00,44.1,37.0,30.38,NNW,334,0.0,-999.0,75,-99.99,,,0.00,weatherlink.com 1.10,2013-10-29 02:10:00,
2013-10-28 22:25:00,43.3,37.0,30.38,NNW,332,0.0,-999.0,77,-99.99,,,0.00,weatherlink.com 1.10,2013-10-29 02:25:00,
2013-10-28 22:40:00,42.6,36.0,30.39,North,11,0.0,-999.0,77,-99.99,,,0.00,weatherlink.com 1.10,2013-10-29 02:40:00,
2013-10-28 22:55:00,41.9,36.0,30.40,North,9,0.0,-999.0,78,-99.99,,,0.00,weatherlink.com 1.10,2013-10-29 02:55:00,
2013-10-28 23:10:00,41.1,35.0,30.40,NNW,347,0.0,-999.0,79,-99.99,,,0.00,weatherlink.com 1.10,2013-10-29 03:10:00,
2013-10-28 23:25:00,40.7,35.0,30.40,NW,323,0.0,-999.0,79,-99.99,,,0.00,weatherlink.com 1.10,2013-10-29 03:25:00,
2013-10-28 23:40:00,40.4,34.0,30.40,NNW,339,0.0,-999.0,79,-99.99,,,0.00,weatherlink.com 1.10,2013-10-29 03:40:00,
2013-10-28 23:55:00,40.1,34.0,30.40,NNW,329,0.0,-999.0,78,-99.99,,,0.00,weatherlink.com 1.10,2013-10-29 03:55:00,